Aérodrome :
LOGIN :

S'inscrire | Disclaimer

   EN    FR    IT 

 










Légende :    VFR   VFR Marginal   IFR   IFR Intensif   IFR Très Intensif
Visi : 
Plafond : 
>= 8 km
>= 3000ft
5 à 8 km
1000 à 3000 ft
1500m à 5 km
500 à 1000 ft
800 à 1500m
200 à 500 ft
< 800m
< 200 ft
Symboles :   Orages  Brouillard  Fortes neiges  Fortes précipitations  Vent > 20 kt
SIGMETs :   Divers  Orages  Givrage  Turbulence  Onde Orograph.  Cendres Volcan.






- Altitude de l'aérodrome : 53 ft
- Code IATA : LBC


EDHL - Lübeck

DERNIER METAR :
  • 162050Z AUTO VRB01KT 9999 // FEW110/// OVC130/// 21/18 Q1010

METARs EXPIRÉS :
  • 162020Z AUTO VRB01KT 9999 // BKN130/// OVC160/// 22/18 Q1010
  • 161950Z AUTO VRB02KT 9999 // FEW120/// OVC140/// 22/18 Q1010
  • 161920Z AUTO VRB02KT 9999 // FEW110/// BKN130/// BKN150/// 22/18 Q1009
  • 161850Z VRB02KT CAVOK 23/17 Q1009 RMK
  • 161820Z 20003KT 150V240 9999 FEW040 25/17 Q1009 RMK

Prévision TAF périmée.



MET'MAP, la Météo Aéronautique d'un coup d'oeil ! - Copyright ORBIFLY Décembre 2007 - Disclaimer

ORBIFLY MET'MAP TEAM :

Programmation & Développement : Alexandra Zaïnal
Sur une idée originale de : Baudouin d'Aumeries
Soutien technique & logistique : Manuel Goepfert
Assistance : Marc-Olivier Méhu




SOURCES & CREDITS :

   NOAA